This is the latest recevied weather packets stored in our database for station/object OE-11349. If no packets are shown the sender has not sent any weather packets the latest 10 day(s).
| Time | Temp. | Humidity | Pressure | Rain* | Wind** | Luminosity | Snow |
|---|---|---|---|---|---|---|---|
| 1787727909 | 12.22° C | 84% | 854.5 hPa | - | - | 172 W/m² | - |
| 1787727309 | 11.67° C | 84% | 854.5 hPa | - | - | 179 W/m² | - |
| 1787726720 | 11.67° C | 84% | 854.5 hPa | - | - | 275 W/m² | - |
| 1787726109 | 11.67° C | 84% | 854.3 hPa | - | - | 337 W/m² | - |
| 1787725509 | 10.56° C | 88% | 854.3 hPa | - | - | 234 W/m² | - |
| 1787724681 | 10.56° C | 89% | 854.2 hPa | - | - | 103 W/m² | - |
| 1787724309 | 10° C | 90% | 854.3 hPa | - | - | 89 W/m² | - |
| 1787723708 | 9.44° C | 92% | 854.2 hPa | - | - | 69 W/m² | - |
| 1787722881 | 9.44° C | 90% | 854.1 hPa | - | - | 34 W/m² | - |
| 1787722510 | 8.89° C | 94% | 854 hPa | - | - | 34 W/m² | - |
| 1787721909 | 8.89° C | 95% | 854.1 hPa | - | - | 28 W/m² | - |
| 1787721081 | 8.89° C | 95% | 854.1 hPa | - | - | 21 W/m² | - |
| 1787720709 | 8.89° C | 98% | 854 hPa | - | - | 14 W/m² | - |
| 1787720109 | 8.89° C | 100% | 854 hPa | - | - | 14 W/m² | - |
| 1787719282 | 8.89° C | 100% | 854 hPa | - | - | 7 W/m² | - |
| 1787718909 | 8.89° C | 100% | 853.9 hPa | - | - | 0 W/m² | - |
| 1787718308 | 8.89° C | 100% | 854 hPa | - | - | 0 W/m² | - |
| 1787717481 | 8.89° C | 100% | 853.9 hPa | - | - | 0 W/m² | - |
| 1787717109 | 9.44° C | 100% | 853.8 hPa | - | - | 0 W/m² | - |
| 1787716508 | 9.44° C | 100% | 853.8 hPa | - | - | 0 W/m² | - |
| 1787715909 | 9.44° C | 100% | 853.8 hPa | - | - | 0 W/m² | - |
| 1787715308 | 9.44° C | 100% | 853.8 hPa | - | - | 0 W/m² | - |
| 1787714709 | 9.44° C | 100% | 853.8 hPa | - | - | 0 W/m² | - |
| 1787713881 | 9.44° C | 100% | 853.9 hPa | - | - | 0 W/m² | - |
| 1787713509 | 9.44° C | 100% | 853.8 hPa | - | - | 0 W/m² | - |
* Rain since midnight (hover to see other rain measurements)
** Current wind speed in m/s (hover to see current wind gust speed)